createdAt,value
2022-12-18T00:00:17.862Z,101742.05
2022-12-18T00:05:52.093Z,101752.36
2022-12-18T00:10:55.775Z,101755.05
2022-12-18T00:16:05.529Z,101762.23
2022-12-18T00:21:11.258Z,101764.48
2022-12-18T00:26:17.498Z,101769.31
2022-12-18T00:31:23.653Z,101775.23
2022-12-18T00:36:33.178Z,101776.05
2022-12-18T00:41:54.860Z,101775.84
2022-12-18T00:46:58.019Z,101792.28
2022-12-18T00:52:01.546Z,101796.30
2022-12-18T00:57:04.750Z,101800.88
2022-12-18T01:02:08.067Z,101804.09
2022-12-18T01:07:11.358Z,101807.19
2022-12-18T01:12:14.503Z,101816.21
2022-12-18T01:17:17.600Z,101824.82
2022-12-18T01:22:20.731Z,101831.42
2022-12-18T01:27:23.926Z,101832.08
2022-12-18T01:32:31.811Z,101832.38
2022-12-18T01:37:35.041Z,101841.72
2022-12-18T01:42:38.179Z,101851.66
2022-12-18T01:48:16.806Z,101846.52
2022-12-18T01:53:24.920Z,101857.45
2022-12-18T01:58:41.706Z,101867.62
2022-12-18T02:03:46.179Z,101873.37
2022-12-18T02:08:59.179Z,101887.81
2022-12-18T02:14:09.765Z,101890.72
2022-12-18T02:19:21.984Z,101898.98
2022-12-18T02:24:44.063Z,101906.21
2022-12-18T02:29:58.554Z,101916.59
2022-12-18T02:35:07.645Z,101919.34
2022-12-18T02:40:13.668Z,101928.48
2022-12-18T02:45:17.050Z,101935.84
2022-12-18T02:50:42.786Z,101937.53
2022-12-18T02:56:20.063Z,101939.10
2022-12-18T03:01:45.688Z,101952.90
2022-12-18T03:06:53.754Z,101963.73
2022-12-18T03:12:26.119Z,101973.77
2022-12-18T03:17:34.820Z,101981.65
2022-12-18T03:22:40.212Z,101987.14
2022-12-18T03:27:48.659Z,102002.45
2022-12-18T03:33:04.835Z,102005.70
2022-12-18T03:38:09.013Z,102005.77
2022-12-18T03:43:31.660Z,102006.47
2022-12-18T03:48:57.527Z,102006.11
2022-12-18T03:54:05.197Z,102010.62
2022-12-18T03:59:16.709Z,102015.22
2022-12-18T04:04:21.437Z,102032.29
2022-12-18T04:09:25.504Z,102042.03
2022-12-18T04:14:29.449Z,102046.61
2022-12-18T04:19:33.137Z,102054.52
2022-12-18T04:24:37.152Z,102064.15
2022-12-18T04:29:47.019Z,102077.81
2022-12-18T04:34:51.631Z,102080.96
2022-12-18T04:39:55.065Z,102093.19
2022-12-18T04:45:04.416Z,102095.61
2022-12-18T04:50:08.538Z,102097.40
2022-12-18T04:55:11.704Z,102101.42
2022-12-18T05:00:15.596Z,102113.02
2022-12-18T05:05:19.083Z,102116.45
2022-12-18T05:10:22.173Z,102126.09
2022-12-18T05:15:30.828Z,102132.18
2022-12-18T05:20:34.164Z,102145.52
2022-12-18T05:25:37.360Z,102151.45
2022-12-18T05:30:45.417Z,102151.69
2022-12-18T05:35:57.021Z,102164.27
2022-12-18T05:41:00.137Z,102168.94
2022-12-18T05:46:15.418Z,102170.21
2022-12-18T05:51:20.934Z,102175.13
2022-12-18T05:56:24.731Z,102173.16
2022-12-18T06:01:28.028Z,102183.15
2022-12-18T06:06:31.285Z,102193.99
2022-12-18T06:11:34.595Z,102205.95
2022-12-18T06:16:37.877Z,102215.59
2022-12-18T06:21:41.007Z,102221.79
2022-12-18T06:26:44.222Z,102231.02
2022-12-18T06:31:47.400Z,102236.40
2022-12-18T06:36:50.469Z,102248.51
2022-12-18T06:41:53.631Z,102254.80
2022-12-18T06:46:56.821Z,102267.15
2022-12-18T06:51:59.892Z,102277.79
2022-12-18T06:57:03.005Z,102284.86
2022-12-18T07:02:06.254Z,102292.66
2022-12-18T07:07:09.510Z,102297.64
2022-12-18T07:12:12.706Z,102300.95
2022-12-18T07:17:15.909Z,102307.67
2022-12-18T07:22:19.381Z,102311.81
2022-12-18T07:27:23.270Z,102313.96
2022-12-18T07:32:26.467Z,102316.65
2022-12-18T07:37:29.680Z,102330.82
2022-12-18T07:42:32.891Z,102347.48
2022-12-18T07:47:42.319Z,102347.38
2022-12-18T07:52:45.595Z,102356.94
2022-12-18T07:57:51.400Z,102361.73
2022-12-18T08:02:56.664Z,102370.73
2022-12-18T08:08:00.077Z,102379.09
2022-12-18T08:13:05.213Z,102385.81
2022-12-18T08:18:13.947Z,102397.98
2022-12-18T08:23:17.660Z,102408.77
2022-12-18T08:28:20.795Z,102419.52
2022-12-18T08:33:24.692Z,102425.65
2022-12-18T08:38:28.096Z,102424.88
2022-12-18T08:43:50.006Z,102429.38
2022-12-18T08:48:54.581Z,102432.34
2022-12-18T08:53:57.748Z,102432.13
2022-12-18T08:59:00.977Z,102437.64
2022-12-18T09:04:04.748Z,102445.59
2022-12-18T09:09:11.725Z,102445.69
2022-12-18T09:14:14.875Z,102456.48
2022-12-18T09:19:18.000Z,102464.77
2022-12-18T09:24:23.980Z,102471.70
2022-12-18T09:29:27.074Z,102464.85
2022-12-18T09:34:30.216Z,102470.91
2022-12-18T09:39:33.318Z,102473.10
2022-12-18T09:44:50.015Z,102477.37
2022-12-18T09:50:02.138Z,102474.23
2022-12-18T09:55:23.988Z,102482.13
2022-12-18T10:00:27.207Z,102487.36
2022-12-18T10:05:48.806Z,102482.39
2022-12-18T10:11:02.801Z,102491.27
2022-12-18T10:16:09.010Z,102495.34
2022-12-18T10:21:20.335Z,102494.23
2022-12-18T10:26:24.301Z,102490.02
2022-12-18T10:31:27.418Z,102492.57
2022-12-18T10:36:30.689Z,102492.19
2022-12-18T10:41:33.945Z,102490.53
2022-12-18T10:46:38.032Z,102492.72
2022-12-18T10:51:41.368Z,102487.64
2022-12-18T10:56:45.414Z,102482.19
2022-12-18T11:01:59.723Z,102490.64
2022-12-18T11:07:06.160Z,102497.52
2022-12-18T11:12:21.316Z,102492.80
2022-12-18T11:17:36.643Z,102493.31
2022-12-18T11:22:41.379Z,102488.61
2022-12-18T11:28:46.670Z,102489.63
2022-12-18T11:34:26.772Z,102495.09
2022-12-18T11:39:33.192Z,102501.16
2022-12-18T11:44:51.841Z,102499.13
2022-12-18T11:49:58.248Z,102489.79
2022-12-18T11:55:06.255Z,102493.48
2022-12-18T12:00:19.964Z,102503.25
2022-12-18T12:05:51.164Z,102510.34
2022-12-18T12:11:15.923Z,102516.95
2022-12-18T12:16:23.434Z,102513.13
2022-12-18T12:21:38.605Z,102513.23
2022-12-18T12:27:24.134Z,102519.27
2022-12-18T12:32:55.396Z,102521.56
2022-12-18T12:38:28.338Z,102538.67
2022-12-18T12:43:49.380Z,102541.21
2022-12-18T12:49:02.170Z,102543.71
2022-12-18T12:54:13.825Z,102551.27
2022-12-18T12:59:31.809Z,102566.61
2022-12-18T13:05:15.931Z,102579.64
2022-12-18T13:10:25.762Z,102588.09
2022-12-18T13:15:47.265Z,102585.07
2022-12-18T13:26:24.706Z,102598.10
2022-12-18T13:31:41.785Z,102605.27
2022-12-18T13:36:45.558Z,102601.17
2022-12-18T13:42:31.890Z,102602.55
2022-12-18T13:47:39.202Z,102608.84
2022-12-18T13:52:44.755Z,102613.85
2022-12-18T13:57:47.919Z,102614.39
2022-12-18T14:02:59.232Z,102620.00
2022-12-18T14:08:19.056Z,102623.77
2022-12-18T14:13:31.641Z,102635.55
2022-12-18T14:18:53.520Z,102638.61
2022-12-18T14:24:23.050Z,102634.96
2022-12-18T14:29:28.063Z,102637.94
2022-12-18T14:34:31.293Z,102634.69
2022-12-18T14:39:34.412Z,102636.66
2022-12-18T14:44:50.644Z,102643.48
2022-12-18T14:50:01.246Z,102651.36
2022-12-18T14:55:04.729Z,102653.98
2022-12-18T15:00:17.048Z,102659.69
2022-12-18T15:05:26.486Z,102652.92
2022-12-18T15:10:34.390Z,102666.67
2022-12-18T15:15:37.576Z,102675.74
2022-12-18T15:20:42.918Z,102668.54
2022-12-18T15:25:48.067Z,102662.94
2022-12-18T15:31:12.648Z,102666.90
2022-12-18T15:36:21.371Z,102671.34
2022-12-18T15:41:33.653Z,102681.96
2022-12-18T15:46:50.742Z,102690.63
2022-12-18T15:51:57.805Z,102683.63
2022-12-18T15:57:19.673Z,102687.19
2022-12-18T16:02:24.261Z,102686.29
2022-12-18T16:07:30.607Z,102692.71
2022-12-18T16:12:34.534Z,102690.88
2022-12-18T16:17:39.304Z,102693.17
2022-12-18T16:22:45.891Z,102693.36
2022-12-18T16:28:07.926Z,102689.65
2022-12-18T16:33:12.176Z,102702.08
2022-12-18T16:38:15.554Z,102698.73
2022-12-18T16:43:18.698Z,102698.24
2022-12-18T16:48:23.069Z,102701.93
2022-12-18T16:53:26.242Z,102704.15
2022-12-18T16:58:29.910Z,102725.02
2022-12-18T17:03:33.114Z,102736.90
2022-12-18T17:08:36.271Z,102731.48
2022-12-18T17:13:40.024Z,102732.20
2022-12-18T17:18:43.916Z,102733.45
2022-12-18T17:23:47.326Z,102732.65
2022-12-18T17:28:50.523Z,102728.63
2022-12-18T17:33:53.929Z,102735.41
2022-12-18T17:39:00.288Z,102736.82
2022-12-18T17:44:05.959Z,102744.69
2022-12-18T17:49:10.883Z,102751.38
2022-12-18T17:54:16.011Z,102765.42
2022-12-18T17:59:19.200Z,102768.25
2022-12-18T18:04:22.334Z,102766.90
2022-12-18T18:09:25.556Z,102764.38
2022-12-18T18:14:28.830Z,102762.73
2022-12-18T18:19:33.675Z,102767.52
2022-12-18T18:24:36.923Z,102760.16
2022-12-18T18:29:40.315Z,102767.16
2022-12-18T18:34:43.470Z,102762.67
2022-12-18T18:39:46.688Z,102754.55
2022-12-18T18:44:49.802Z,102762.64
2022-12-18T18:49:53.013Z,102759.34
2022-12-18T18:55:12.085Z,102758.64
2022-12-18T19:00:16.843Z,102751.01
2022-12-18T19:05:20.417Z,102773.55
2022-12-18T19:10:23.745Z,102765.04
2022-12-18T19:15:26.945Z,102762.50
2022-12-18T19:20:30.526Z,102754.98
2022-12-18T19:25:38.562Z,102763.23
2022-12-18T19:30:45.078Z,102778.98
2022-12-18T19:35:48.588Z,102780.05
2022-12-18T19:40:52.607Z,102782.67
2022-12-18T19:45:56.127Z,102780.21
2022-12-18T19:51:03.896Z,102776.98
2022-12-18T19:56:09.047Z,102776.14
2022-12-18T20:01:16.227Z,102774.92
2022-12-18T20:06:29.283Z,102773.42
2022-12-18T20:11:38.865Z,102771.35
2022-12-18T20:16:45.817Z,102762.41
2022-12-18T20:21:49.569Z,102768.01
2022-12-18T20:26:52.834Z,102776.64
2022-12-18T20:31:56.202Z,102775.88
2022-12-18T20:36:59.403Z,102780.36
2022-12-18T20:42:03.567Z,102787.12
2022-12-18T20:47:08.578Z,102807.65
2022-12-18T20:52:12.967Z,102817.33
2022-12-18T20:57:16.195Z,102817.05
2022-12-18T21:02:19.548Z,102812.17
2022-12-18T21:07:23.089Z,102810.31
2022-12-18T21:12:40.397Z,102809.03
2022-12-18T21:17:48.148Z,102818.17
2022-12-18T21:22:51.618Z,102810.73
2022-12-18T21:27:57.224Z,102807.48
2022-12-18T21:33:00.646Z,102803.93
2022-12-18T21:38:05.765Z,102797.65
2022-12-18T21:43:29.053Z,102788.58
2022-12-18T21:48:32.321Z,102771.13
2022-12-18T21:53:35.474Z,102747.94
2022-12-18T21:58:38.592Z,102741.55
2022-12-18T22:03:58.896Z,102721.03
2022-12-18T22:09:02.160Z,102709.02
2022-12-18T22:14:05.392Z,102704.55
2022-12-18T22:19:09.949Z,102706.95
2022-12-18T22:24:15.104Z,102704.30
2022-12-18T22:29:42.163Z,102709.45
2022-12-18T22:34:45.396Z,102711.00
2022-12-18T22:39:48.539Z,102711.63
2022-12-18T22:44:51.848Z,102705.77
2022-12-18T22:49:54.950Z,102703.04
2022-12-18T22:54:58.168Z,102703.63
2022-12-18T23:00:01.310Z,102705.34
2022-12-18T23:05:07.827Z,102697.45
2022-12-18T23:10:11.172Z,102699.71
2022-12-18T23:15:14.367Z,102691.70
2022-12-18T23:20:20.112Z,102691.66
2022-12-18T23:25:23.708Z,102695.26
2022-12-18T23:30:26.857Z,102684.64
2022-12-18T23:35:30.692Z,102684.52
2022-12-18T23:40:33.948Z,102686.59
2022-12-18T23:45:38.354Z,102682.89
2022-12-18T23:50:41.472Z,102685.23
2022-12-18T23:55:45.495Z,102686.02
